sensor_id;sensor_type;location;lat;lon;timestamp;temperature;humidity
4201;DHT22;2114;50.398;8.814;2023-01-24T00:02:00;0.80;99.90
4201;DHT22;2114;50.398;8.814;2023-01-24T00:07:01;0.80;99.90
4201;DHT22;2114;50.398;8.814;2023-01-24T00:12:01;0.80;99.90
4201;DHT22;2114;50.398;8.814;2023-01-24T00:17:02;0.80;99.90
4201;DHT22;2114;50.398;8.814;2023-01-24T00:22:03;0.80;99.90
4201;DHT22;2114;50.398;8.814;2023-01-24T00:27:04;0.70;99.90
4201;DHT22;2114;50.398;8.814;2023-01-24T00:32:05;0.70;99.90
4201;DHT22;2114;50.398;8.814;2023-01-24T00:37:05;0.70;99.90
4201;DHT22;2114;50.398;8.814;2023-01-24T00:42:06;0.70;99.90
4201;DHT22;2114;50.398;8.814;2023-01-24T00:47:06;0.70;99.90
4201;DHT22;2114;50.398;8.814;2023-01-24T00:52:07;0.70;99.90
4201;DHT22;2114;50.398;8.814;2023-01-24T00:57:07;0.70;99.90
4201;DHT22;2114;50.398;8.814;2023-01-24T01:02:08;0.60;99.90
4201;DHT22;2114;50.398;8.814;2023-01-24T01:07:08;0.60;99.90
4201;DHT22;2114;50.398;8.814;2023-01-24T01:12:09;0.60;99.90
4201;DHT22;2114;50.398;8.814;2023-01-24T01:17:09;0.60;99.90
4201;DHT22;2114;50.398;8.814;2023-01-24T01:22:10;0.60;99.90
4201;DHT22;2114;50.398;8.814;2023-01-24T01:27:11;0.60;99.90
4201;DHT22;2114;50.398;8.814;2023-01-24T01:32:11;0.60;99.90
4201;DHT22;2114;50.398;8.814;2023-01-24T01:37:12;0.60;99.90
4201;DHT22;2114;50.398;8.814;2023-01-24T01:42:12;0.60;99.90
4201;DHT22;2114;50.398;8.814;2023-01-24T01:47:33;0.60;99.90
4201;DHT22;2114;50.398;8.814;2023-01-24T01:52:37;0.60;99.90
4201;DHT22;2114;50.398;8.814;2023-01-24T01:57:39;0.60;99.90
4201;DHT22;2114;50.398;8.814;2023-01-24T02:02:46;0.60;99.90
4201;DHT22;2114;50.398;8.814;2023-01-24T02:07:57;0.60;99.90
4201;DHT22;2114;50.398;8.814;2023-01-24T02:12:58;0.60;99.90
4201;DHT22;2114;50.398;8.814;2023-01-24T02:17:59;0.60;99.90
4201;DHT22;2114;50.398;8.814;2023-01-24T02:28:08;0.60;99.90
4201;DHT22;2114;50.398;8.814;2023-01-24T02:33:14;0.60;99.90
4201;DHT22;2114;50.398;8.814;2023-01-24T02:38:22;0.60;99.90
4201;DHT22;2114;50.398;8.814;2023-01-24T02:43:25;0.50;99.90
4201;DHT22;2114;50.398;8.814;2023-01-24T02:48:28;0.50;99.90
4201;DHT22;2114;50.398;8.814;2023-01-24T02:53:29;0.50;99.90
4201;DHT22;2114;50.398;8.814;2023-01-24T02:58:29;0.40;99.90
4201;DHT22;2114;50.398;8.814;2023-01-24T03:03:30;0.40;99.90
4201;DHT22;2114;50.398;8.814;2023-01-24T03:08:32;0.30;99.90
4201;DHT22;2114;50.398;8.814;2023-01-24T03:13:33;0.30;99.90
4201;DHT22;2114;50.398;8.814;2023-01-24T03:18:53;0.30;99.90
4201;DHT22;2114;50.398;8.814;2023-01-24T03:24:12;0.40;99.90
4201;DHT22;2114;50.398;8.814;2023-01-24T03:29:31;0.30;99.90
4201;DHT22;2114;50.398;8.814;2023-01-24T03:34:50;0.30;99.90
4201;DHT22;2114;50.398;8.814;2023-01-24T03:39:51;0.30;99.90
4201;DHT22;2114;50.398;8.814;2023-01-24T03:44:58;0.30;99.90
4201;DHT22;2114;50.398;8.814;2023-01-24T03:49:59;0.30;99.90
4201;DHT22;2114;50.398;8.814;2023-01-24T03:55:18;0.40;99.90
4201;DHT22;2114;50.398;8.814;2023-01-24T04:00:18;0.40;99.90
4201;DHT22;2114;50.398;8.814;2023-01-24T04:05:19;0.40;99.90
4201;DHT22;2114;50.398;8.814;2023-01-24T04:10:21;0.40;99.90
4201;DHT22;2114;50.398;8.814;2023-01-24T04:15:24;0.50;99.90
4201;DHT22;2114;50.398;8.814;2023-01-24T04:20:26;0.50;99.90
4201;DHT22;2114;50.398;8.814;2023-01-24T04:25:27;0.60;99.90
4201;DHT22;2114;50.398;8.814;2023-01-24T04:30:27;0.60;99.90
4201;DHT22;2114;50.398;8.814;2023-01-24T04:35:29;0.60;99.90
4201;DHT22;2114;50.398;8.814;2023-01-24T04:40:30;0.70;99.90
4201;DHT22;2114;50.398;8.814;2023-01-24T04:45:30;0.70;99.90
4201;DHT22;2114;50.398;8.814;2023-01-24T04:50:31;0.70;99.90
4201;DHT22;2114;50.398;8.814;2023-01-24T04:55:31;0.80;99.90
4201;DHT22;2114;50.398;8.814;2023-01-24T05:00:32;0.80;99.90
4201;DHT22;2114;50.398;8.814;2023-01-24T05:05:32;0.80;99.90
4201;DHT22;2114;50.398;8.814;2023-01-24T05:10:33;0.90;99.90
4201;DHT22;2114;50.398;8.814;2023-01-24T05:15:34;0.90;99.90
4201;DHT22;2114;50.398;8.814;2023-01-24T05:20:34;0.90;99.90
4201;DHT22;2114;50.398;8.814;2023-01-24T05:25:35;0.90;99.90
4201;DHT22;2114;50.398;8.814;2023-01-24T05:30:35;0.90;99.90
4201;DHT22;2114;50.398;8.814;2023-01-24T05:35:36;0.90;99.90
4201;DHT22;2114;50.398;8.814;2023-01-24T05:40:36;0.90;99.90
4201;DHT22;2114;50.398;8.814;2023-01-24T05:45:37;0.90;99.90
4201;DHT22;2114;50.398;8.814;2023-01-24T05:50:37;0.90;99.90
4201;DHT22;2114;50.398;8.814;2023-01-24T05:55:38;0.90;99.90
4201;DHT22;2114;50.398;8.814;2023-01-24T06:00:40;0.90;99.90
4201;DHT22;2114;50.398;8.814;2023-01-24T06:05:47;1.00;99.90
4201;DHT22;2114;50.398;8.814;2023-01-24T06:10:48;1.00;99.90
4201;DHT22;2114;50.398;8.814;2023-01-24T06:15:49;1.00;99.90
4201;DHT22;2114;50.398;8.814;2023-01-24T06:20:50;1.00;99.90
4201;DHT22;2114;50.398;8.814;2023-01-24T06:25:51;1.00;99.90
4201;DHT22;2114;50.398;8.814;2023-01-24T06:41:36;1.00;99.90
4201;DHT22;2114;50.398;8.814;2023-01-24T06:46:37;1.00;99.90
4201;DHT22;2114;50.398;8.814;2023-01-24T06:51:37;1.00;99.90
4201;DHT22;2114;50.398;8.814;2023-01-24T06:56:38;1.10;99.90
4201;DHT22;2114;50.398;8.814;2023-01-24T07:01:39;1.10;99.90
4201;DHT22;2114;50.398;8.814;2023-01-24T07:06:39;1.10;99.90
4201;DHT22;2114;50.398;8.814;2023-01-24T07:11:40;1.10;99.90
4201;DHT22;2114;50.398;8.814;2023-01-24T07:16:40;1.10;99.90
4201;DHT22;2114;50.398;8.814;2023-01-24T07:21:41;1.10;99.90
4201;DHT22;2114;50.398;8.814;2023-01-24T07:26:42;1.10;99.90
4201;DHT22;2114;50.398;8.814;2023-01-24T07:31:43;1.10;99.90
4201;DHT22;2114;50.398;8.814;2023-01-24T07:36:47;1.10;99.90
4201;DHT22;2114;50.398;8.814;2023-01-24T07:41:47;1.10;99.90
4201;DHT22;2114;50.398;8.814;2023-01-24T07:46:48;1.20;99.90
4201;DHT22;2114;50.398;8.814;2023-01-24T07:51:48;1.20;99.90
4201;DHT22;2114;50.398;8.814;2023-01-24T07:56:49;1.20;99.90
4201;DHT22;2114;50.398;8.814;2023-01-24T08:01:50;1.20;99.90
4201;DHT22;2114;50.398;8.814;2023-01-24T08:06:50;1.20;99.90
4201;DHT22;2114;50.398;8.814;2023-01-24T08:12:09;1.20;99.90
4201;DHT22;2114;50.398;8.814;2023-01-24T08:17:10;1.30;99.90
4201;DHT22;2114;50.398;8.814;2023-01-24T08:22:11;1.30;99.90
4201;DHT22;2114;50.398;8.814;2023-01-24T08:27:11;1.30;99.90
4201;DHT22;2114;50.398;8.814;2023-01-24T08:32:12;1.40;99.90
4201;DHT22;2114;50.398;8.814;2023-01-24T08:37:12;1.40;99.90
4201;DHT22;2114;50.398;8.814;2023-01-24T08:42:13;1.40;99.90
4201;DHT22;2114;50.398;8.814;2023-01-24T08:47:13;1.50;99.90
4201;DHT22;2114;50.398;8.814;2023-01-24T08:52:15;1.50;99.90
4201;DHT22;2114;50.398;8.814;2023-01-24T08:57:16;1.50;99.90
4201;DHT22;2114;50.398;8.814;2023-01-24T09:02:16;1.50;99.90
4201;DHT22;2114;50.398;8.814;2023-01-24T09:07:17;1.60;99.90
4201;DHT22;2114;50.398;8.814;2023-01-24T09:12:18;1.60;99.90
4201;DHT22;2114;50.398;8.814;2023-01-24T09:17:18;1.60;99.90
4201;DHT22;2114;50.398;8.814;2023-01-24T09:22:19;1.70;99.90
4201;DHT22;2114;50.398;8.814;2023-01-24T09:27:19;1.70;99.90
4201;DHT22;2114;50.398;8.814;2023-01-24T09:32:20;1.70;99.90
4201;DHT22;2114;50.398;8.814;2023-01-24T09:37:22;1.80;99.90
4201;DHT22;2114;50.398;8.814;2023-01-24T09:42:27;1.80;99.90
4201;DHT22;2114;50.398;8.814;2023-01-24T09:48:32;1.80;99.90
4201;DHT22;2114;50.398;8.814;2023-01-24T09:53:29;1.90;99.90
4201;DHT22;2114;50.398;8.814;2023-01-24T09:58:36;1.90;99.90
4201;DHT22;2114;50.398;8.814;2023-01-24T10:03:40;2.00;99.90
4201;DHT22;2114;50.398;8.814;2023-01-24T10:24:30;2.20;99.90
4201;DHT22;2114;50.398;8.814;2023-01-24T10:29:38;2.20;99.90
4201;DHT22;2114;50.398;8.814;2023-01-24T10:34:46;2.20;99.90
4201;DHT22;2114;50.398;8.814;2023-01-24T10:39:47;2.30;99.90
4201;DHT22;2114;50.398;8.814;2023-01-24T10:44:48;2.30;99.90
4201;DHT22;2114;50.398;8.814;2023-01-24T10:50:01;2.40;99.90
4201;DHT22;2114;50.398;8.814;2023-01-24T10:55:04;2.40;99.90
4201;DHT22;2114;50.398;8.814;2023-01-24T11:05:43;2.50;99.90
4201;DHT22;2114;50.398;8.814;2023-01-24T11:10:44;2.50;99.90
4201;DHT22;2114;50.398;8.814;2023-01-24T11:15:47;2.50;99.90
4201;DHT22;2114;50.398;8.814;2023-01-24T11:21:14;2.60;99.90
4201;DHT22;2114;50.398;8.814;2023-01-24T11:26:25;2.60;99.90
4201;DHT22;2114;50.398;8.814;2023-01-24T11:31:35;2.60;99.90
4201;DHT22;2114;50.398;8.814;2023-01-24T11:47:17;2.80;99.90
4201;DHT22;2114;50.398;8.814;2023-01-24T11:58:03;2.80;99.90
4201;DHT22;2114;50.398;8.814;2023-01-24T12:13:38;2.90;99.90
4201;DHT22;2114;50.398;8.814;2023-01-24T12:29:43;2.90;99.90
4201;DHT22;2114;50.398;8.814;2023-01-24T12:45:20;3.00;99.90
4201;DHT22;2114;50.398;8.814;2023-01-24T12:50:40;3.00;99.90
4201;DHT22;2114;50.398;8.814;2023-01-24T12:56:01;3.00;99.90
4201;DHT22;2114;50.398;8.814;2023-01-24T13:11:48;3.00;99.90
4201;DHT22;2114;50.398;8.814;2023-01-24T13:16:59;3.00;99.90
4201;DHT22;2114;50.398;8.814;2023-01-24T13:27:40;3.00;99.90
4201;DHT22;2114;50.398;8.814;2023-01-24T13:32:44;3.00;99.90
4201;DHT22;2114;50.398;8.814;2023-01-24T13:37:53;3.10;99.90
4201;DHT22;2114;50.398;8.814;2023-01-24T13:42:55;3.00;99.90
4201;DHT22;2114;50.398;8.814;2023-01-24T13:47:57;3.00;99.90
4201;DHT22;2114;50.398;8.814;2023-01-24T13:53:00;3.00;99.90
4201;DHT22;2114;50.398;8.814;2023-01-24T14:03:31;3.00;99.90
4201;DHT22;2114;50.398;8.814;2023-01-24T14:08:35;3.00;99.90
4201;DHT22;2114;50.398;8.814;2023-01-24T14:18:58;2.90;99.90
4201;DHT22;2114;50.398;8.814;2023-01-24T14:24:15;2.90;99.90
4201;DHT22;2114;50.398;8.814;2023-01-24T14:29:18;2.90;99.90
4201;DHT22;2114;50.398;8.814;2023-01-24T14:34:23;2.90;99.90
4201;DHT22;2114;50.398;8.814;2023-01-24T14:39:26;2.90;99.90
4201;DHT22;2114;50.398;8.814;2023-01-24T14:44:35;2.90;99.90
4201;DHT22;2114;50.398;8.814;2023-01-24T14:49:44;2.90;99.90
4201;DHT22;2114;50.398;8.814;2023-01-24T14:54:53;2.90;99.90
4201;DHT22;2114;50.398;8.814;2023-01-24T15:05:02;2.80;99.90
4201;DHT22;2114;50.398;8.814;2023-01-24T15:10:12;2.80;99.90
4201;DHT22;2114;50.398;8.814;2023-01-24T15:15:16;2.80;99.90
4201;DHT22;2114;50.398;8.814;2023-01-24T15:20:21;2.70;99.90
4201;DHT22;2114;50.398;8.814;2023-01-24T15:25:34;2.70;99.90
4201;DHT22;2114;50.398;8.814;2023-01-24T15:30:34;2.70;99.90
4201;DHT22;2114;50.398;8.814;2023-01-24T15:35:38;2.70;99.90
4201;DHT22;2114;50.398;8.814;2023-01-24T15:40:55;2.70;99.90
4201;DHT22;2114;50.398;8.814;2023-01-24T15:45:57;2.60;99.90
4201;DHT22;2114;50.398;8.814;2023-01-24T15:51:31;2.60;99.90
4201;DHT22;2114;50.398;8.814;2023-01-24T15:56:32;2.60;99.90
4201;DHT22;2114;50.398;8.814;2023-01-24T16:01:32;2.60;99.90
4201;DHT22;2114;50.398;8.814;2023-01-24T16:06:33;2.60;99.90
4201;DHT22;2114;50.398;8.814;2023-01-24T16:11:33;2.50;99.90
4201;DHT22;2114;50.398;8.814;2023-01-24T16:16:34;2.50;99.90
4201;DHT22;2114;50.398;8.814;2023-01-24T16:21:35;2.50;99.90
4201;DHT22;2114;50.398;8.814;2023-01-24T16:26:36;2.40;99.90
4201;DHT22;2114;50.398;8.814;2023-01-24T16:31:37;2.40;99.90
4201;DHT22;2114;50.398;8.814;2023-01-24T16:36:38;2.60;99.90
4201;DHT22;2114;50.398;8.814;2023-01-24T16:41:39;2.70;99.90
4201;DHT22;2114;50.398;8.814;2023-01-24T16:46:40;2.90;99.90
4201;DHT22;2114;50.398;8.814;2023-01-24T16:51:43;3.10;99.90
4201;DHT22;2114;50.398;8.814;2023-01-24T16:56:44;3.20;99.90
4201;DHT22;2114;50.398;8.814;2023-01-24T17:01:45;3.30;99.90
4201;DHT22;2114;50.398;8.814;2023-01-24T17:06:45;3.40;99.90
4201;DHT22;2114;50.398;8.814;2023-01-24T17:11:46;3.40;99.90
4201;DHT22;2114;50.398;8.814;2023-01-24T17:16:50;3.40;99.90
4201;DHT22;2114;50.398;8.814;2023-01-24T17:21:50;3.50;99.90
4201;DHT22;2114;50.398;8.814;2023-01-24T17:26:51;3.50;99.90
4201;DHT22;2114;50.398;8.814;2023-01-24T17:31:51;3.50;99.90
4201;DHT22;2114;50.398;8.814;2023-01-24T17:36:52;3.50;99.90
4201;DHT22;2114;50.398;8.814;2023-01-24T17:41:52;3.50;99.90
4201;DHT22;2114;50.398;8.814;2023-01-24T17:46:53;3.50;99.90
4201;DHT22;2114;50.398;8.814;2023-01-24T17:51:55;3.50;99.90
4201;DHT22;2114;50.398;8.814;2023-01-24T17:56:55;3.50;99.90
4201;DHT22;2114;50.398;8.814;2023-01-24T18:01:56;3.40;99.90
4201;DHT22;2114;50.398;8.814;2023-01-24T18:06:56;3.50;99.90
4201;DHT22;2114;50.398;8.814;2023-01-24T18:11:57;3.50;99.90
4201;DHT22;2114;50.398;8.814;2023-01-24T18:16:57;3.40;99.90
4201;DHT22;2114;50.398;8.814;2023-01-24T18:21:58;3.40;99.90
4201;DHT22;2114;50.398;8.814;2023-01-24T18:26:58;3.40;99.90
4201;DHT22;2114;50.398;8.814;2023-01-24T18:31:59;3.40;99.90
4201;DHT22;2114;50.398;8.814;2023-01-24T18:36:59;3.40;99.90
4201;DHT22;2114;50.398;8.814;2023-01-24T18:42:00;3.40;99.90
4201;DHT22;2114;50.398;8.814;2023-01-24T18:47:04;3.40;99.90
4201;DHT22;2114;50.398;8.814;2023-01-24T18:52:05;3.30;99.90
4201;DHT22;2114;50.398;8.814;2023-01-24T18:57:06;3.30;99.90
4201;DHT22;2114;50.398;8.814;2023-01-24T19:02:09;3.30;99.90
4201;DHT22;2114;50.398;8.814;2023-01-24T19:07:10;3.30;99.90
4201;DHT22;2114;50.398;8.814;2023-01-24T19:12:10;3.20;99.90
4201;DHT22;2114;50.398;8.814;2023-01-24T19:17:13;3.20;99.90
4201;DHT22;2114;50.398;8.814;2023-01-24T19:22:14;3.20;99.90
4201;DHT22;2114;50.398;8.814;2023-01-24T19:27:14;3.20;99.90
4201;DHT22;2114;50.398;8.814;2023-01-24T19:32:16;3.20;99.90
4201;DHT22;2114;50.398;8.814;2023-01-24T19:37:16;3.20;99.90
4201;DHT22;2114;50.398;8.814;2023-01-24T19:42:17;3.20;99.90
4201;DHT22;2114;50.398;8.814;2023-01-24T19:47:17;3.20;99.90
4201;DHT22;2114;50.398;8.814;2023-01-24T19:52:18;3.20;99.90
4201;DHT22;2114;50.398;8.814;2023-01-24T19:57:18;3.10;99.90
4201;DHT22;2114;50.398;8.814;2023-01-24T20:02:19;3.10;99.90
4201;DHT22;2114;50.398;8.814;2023-01-24T20:07:19;3.10;99.90
4201;DHT22;2114;50.398;8.814;2023-01-24T20:12:20;3.10;99.90
4201;DHT22;2114;50.398;8.814;2023-01-24T20:17:21;3.10;99.90
4201;DHT22;2114;50.398;8.814;2023-01-24T20:22:21;3.10;99.90
4201;DHT22;2114;50.398;8.814;2023-01-24T20:27:22;3.00;99.90
4201;DHT22;2114;50.398;8.814;2023-01-24T20:32:22;3.00;99.90
4201;DHT22;2114;50.398;8.814;2023-01-24T20:37:23;3.00;99.90
4201;DHT22;2114;50.398;8.814;2023-01-24T20:42:23;3.00;99.90
4201;DHT22;2114;50.398;8.814;2023-01-24T20:47:24;3.00;99.90
4201;DHT22;2114;50.398;8.814;2023-01-24T20:52:24;3.00;99.90
4201;DHT22;2114;50.398;8.814;2023-01-24T20:57:25;3.00;99.90
4201;DHT22;2114;50.398;8.814;2023-01-24T21:02:25;3.00;99.90
4201;DHT22;2114;50.398;8.814;2023-01-24T21:07:26;2.90;99.90
4201;DHT22;2114;50.398;8.814;2023-01-24T21:12:26;2.90;99.90
4201;DHT22;2114;50.398;8.814;2023-01-24T21:17:27;2.90;99.90
4201;DHT22;2114;50.398;8.814;2023-01-24T21:22:30;2.90;99.90
4201;DHT22;2114;50.398;8.814;2023-01-24T21:27:30;2.90;99.90
4201;DHT22;2114;50.398;8.814;2023-01-24T21:32:31;2.90;99.90
4201;DHT22;2114;50.398;8.814;2023-01-24T21:37:31;2.80;99.90
4201;DHT22;2114;50.398;8.814;2023-01-24T21:42:32;2.80;99.90
4201;DHT22;2114;50.398;8.814;2023-01-24T21:47:32;2.80;99.90
4201;DHT22;2114;50.398;8.814;2023-01-24T21:52:33;2.80;99.90
4201;DHT22;2114;50.398;8.814;2023-01-24T21:57:33;2.80;99.90
4201;DHT22;2114;50.398;8.814;2023-01-24T22:02:53;2.80;99.90
4201;DHT22;2114;50.398;8.814;2023-01-24T22:08:13;2.80;99.90
4201;DHT22;2114;50.398;8.814;2023-01-24T22:13:14;2.80;99.90
4201;DHT22;2114;50.398;8.814;2023-01-24T22:18:14;2.80;99.90
4201;DHT22;2114;50.398;8.814;2023-01-24T22:23:26;2.80;99.90
4201;DHT22;2114;50.398;8.814;2023-01-24T22:28:27;2.80;99.90
4201;DHT22;2114;50.398;8.814;2023-01-24T22:33:28;2.70;99.90
4201;DHT22;2114;50.398;8.814;2023-01-24T22:38:29;2.70;99.90
4201;DHT22;2114;50.398;8.814;2023-01-24T22:43:30;2.70;99.90
4201;DHT22;2114;50.398;8.814;2023-01-24T22:48:31;2.70;99.90
4201;DHT22;2114;50.398;8.814;2023-01-24T22:53:31;2.70;99.90
4201;DHT22;2114;50.398;8.814;2023-01-24T22:58:31;2.70;99.90
4201;DHT22;2114;50.398;8.814;2023-01-24T23:03:32;2.70;99.90
4201;DHT22;2114;50.398;8.814;2023-01-24T23:08:33;2.70;99.90
4201;DHT22;2114;50.398;8.814;2023-01-24T23:13:33;2.60;99.90
4201;DHT22;2114;50.398;8.814;2023-01-24T23:18:53;2.60;99.90
4201;DHT22;2114;50.398;8.814;2023-01-24T23:24:12;2.60;99.90
4201;DHT22;2114;50.398;8.814;2023-01-24T23:34:36;2.60;99.90
4201;DHT22;2114;50.398;8.814;2023-01-24T23:39:38;2.60;99.90
4201;DHT22;2114;50.398;8.814;2023-01-24T23:44:39;2.60;99.90
4201;DHT22;2114;50.398;8.814;2023-01-24T23:49:40;2.50;99.90
4201;DHT22;2114;50.398;8.814;2023-01-24T23:54:40;2.50;99.90
4201;DHT22;2114;50.398;8.814;2023-01-24T23:59:41;2.50;99.90
